sensor_id;sensor_type;location;lat;lon;timestamp;P1;durP1;ratioP1;P2;durP2;ratioP2
2480;SDS011;57396;48.742;9.128;2023-02-28T00:00:17;4.57;;;3.70;;
2480;SDS011;57396;48.742;9.128;2023-02-28T00:02:43;4.77;;;3.10;;
2480;SDS011;57396;48.742;9.128;2023-02-28T00:05:09;6.80;;;3.70;;
2480;SDS011;57396;48.742;9.128;2023-02-28T00:07:36;4.70;;;3.40;;
2480;SDS011;57396;48.742;9.128;2023-02-28T00:10:02;4.40;;;3.57;;
2480;SDS011;57396;48.742;9.128;2023-02-28T00:12:28;4.87;;;3.50;;
2480;SDS011;57396;48.742;9.128;2023-02-28T00:14:54;7.23;;;4.17;;
2480;SDS011;57396;48.742;9.128;2023-02-28T00:17:19;4.90;;;3.60;;
2480;SDS011;57396;48.742;9.128;2023-02-28T00:19:49;4.30;;;3.40;;
2480;SDS011;57396;48.742;9.128;2023-02-28T00:22:15;5.13;;;3.80;;
2480;SDS011;57396;48.742;9.128;2023-02-28T00:24:41;5.00;;;3.33;;
2480;SDS011;57396;48.742;9.128;2023-02-28T00:27:07;4.93;;;3.63;;
2480;SDS011;57396;48.742;9.128;2023-02-28T00:29:32;4.30;;;3.60;;
2480;SDS011;57396;48.742;9.128;2023-02-28T00:31:57;9.03;;;4.20;;
2480;SDS011;57396;48.742;9.128;2023-02-28T00:34:23;5.00;;;3.20;;
2480;SDS011;57396;48.742;9.128;2023-02-28T00:36:48;5.10;;;3.20;;
2480;SDS011;57396;48.742;9.128;2023-02-28T00:39:14;6.40;;;3.63;;
2480;SDS011;57396;48.742;9.128;2023-02-28T00:41:39;4.20;;;3.27;;
2480;SDS011;57396;48.742;9.128;2023-02-28T00:44:05;5.23;;;3.60;;
2480;SDS011;57396;48.742;9.128;2023-02-28T00:46:30;5.43;;;3.73;;
2480;SDS011;57396;48.742;9.128;2023-02-28T00:48:56;4.77;;;3.33;;
2480;SDS011;57396;48.742;9.128;2023-02-28T00:51:21;4.57;;;3.37;;
2480;SDS011;57396;48.742;9.128;2023-02-28T00:53:47;5.87;;;3.30;;
2480;SDS011;57396;48.742;9.128;2023-02-28T00:56:12;4.17;;;3.20;;
2480;SDS011;57396;48.742;9.128;2023-02-28T00:58:38;5.63;;;3.60;;
2480;SDS011;57396;48.742;9.128;2023-02-28T01:01:04;5.70;;;3.60;;
2480;SDS011;57396;48.742;9.128;2023-02-28T01:03:29;3.80;;;3.47;;
2480;SDS011;57396;48.742;9.128;2023-02-28T01:05:55;5.47;;;3.60;;
2480;SDS011;57396;48.742;9.128;2023-02-28T01:08:20;5.13;;;3.63;;
2480;SDS011;57396;48.742;9.128;2023-02-28T01:10:46;4.23;;;3.37;;
2480;SDS011;57396;48.742;9.128;2023-02-28T01:13:11;4.30;;;3.47;;
2480;SDS011;57396;48.742;9.128;2023-02-28T01:15:37;5.43;;;3.50;;
2480;SDS011;57396;48.742;9.128;2023-02-28T01:18:04;4.93;;;3.60;;
2480;SDS011;57396;48.742;9.128;2023-02-28T01:20:30;4.50;;;3.43;;
2480;SDS011;57396;48.742;9.128;2023-02-28T01:22:55;4.80;;;3.97;;
2480;SDS011;57396;48.742;9.128;2023-02-28T01:25:21;6.40;;;3.57;;
2480;SDS011;57396;48.742;9.128;2023-02-28T01:27:46;4.97;;;3.93;;
2480;SDS011;57396;48.742;9.128;2023-02-28T01:30:11;5.53;;;3.40;;
2480;SDS011;57396;48.742;9.128;2023-02-28T01:32:37;4.80;;;3.47;;
2480;SDS011;57396;48.742;9.128;2023-02-28T01:35:02;6.13;;;3.80;;
2480;SDS011;57396;48.742;9.128;2023-02-28T01:37:28;4.40;;;3.70;;
2480;SDS011;57396;48.742;9.128;2023-02-28T01:39:53;4.70;;;3.73;;
2480;SDS011;57396;48.742;9.128;2023-02-28T01:42:19;4.30;;;3.77;;
2480;SDS011;57396;48.742;9.128;2023-02-28T01:44:59;5.23;;;4.00;;
2480;SDS011;57396;48.742;9.128;2023-02-28T01:47:45;5.47;;;4.50;;
2480;SDS011;57396;48.742;9.128;2023-02-28T01:50:12;4.37;;;3.83;;
2480;SDS011;57396;48.742;9.128;2023-02-28T01:52:40;12.37;;;4.10;;
2480;SDS011;57396;48.742;9.128;2023-02-28T01:55:06;5.43;;;4.37;;
2480;SDS011;57396;48.742;9.128;2023-02-28T01:57:33;10.60;;;4.00;;
2480;SDS011;57396;48.742;9.128;2023-02-28T02:00:21;5.83;;;3.67;;
2480;SDS011;57396;48.742;9.128;2023-02-28T02:02:49;6.60;;;4.53;;
2480;SDS011;57396;48.742;9.128;2023-02-28T02:08:12;6.47;;;4.00;;
2480;SDS011;57396;48.742;9.128;2023-02-28T02:10:43;8.13;;;4.20;;
2480;SDS011;57396;48.742;9.128;2023-02-28T02:23:47;6.03;;;4.30;;
2480;SDS011;57396;48.742;9.128;2023-02-28T02:29:13;6.27;;;4.70;;
2480;SDS011;57396;48.742;9.128;2023-02-28T02:31:55;7.90;;;4.60;;
2480;SDS011;57396;48.742;9.128;2023-02-28T02:34:34;5.90;;;4.43;;
2480;SDS011;57396;48.742;9.128;2023-02-28T02:37:14;6.80;;;4.37;;
2480;SDS011;57396;48.742;9.128;2023-02-28T02:40:00;8.87;;;4.80;;
2480;SDS011;57396;48.742;9.128;2023-02-28T02:42:39;6.23;;;4.87;;
2480;SDS011;57396;48.742;9.128;2023-02-28T02:45:16;6.80;;;4.47;;
2480;SDS011;57396;48.742;9.128;2023-02-28T02:47:46;6.07;;;4.77;;
2480;SDS011;57396;48.742;9.128;2023-02-28T02:50:14;7.60;;;5.57;;
2480;SDS011;57396;48.742;9.128;2023-02-28T02:52:44;6.03;;;5.07;;
2480;SDS011;57396;48.742;9.128;2023-02-28T02:55:14;6.93;;;5.43;;
2480;SDS011;57396;48.742;9.128;2023-02-28T02:57:45;6.67;;;5.13;;
2480;SDS011;57396;48.742;9.128;2023-02-28T03:00:12;7.40;;;5.23;;
2480;SDS011;57396;48.742;9.128;2023-02-28T03:02:40;9.43;;;5.33;;
2480;SDS011;57396;48.742;9.128;2023-02-28T03:05:07;7.93;;;5.20;;
2480;SDS011;57396;48.742;9.128;2023-02-28T03:07:37;11.53;;;5.10;;
2480;SDS011;57396;48.742;9.128;2023-02-28T03:10:25;6.83;;;4.50;;
2480;SDS011;57396;48.742;9.128;2023-02-28T03:12:57;6.53;;;5.13;;
2480;SDS011;57396;48.742;9.128;2023-02-28T03:15:33;7.50;;;5.30;;
2480;SDS011;57396;48.742;9.128;2023-02-28T03:18:32;6.73;;;4.90;;
2480;SDS011;57396;48.742;9.128;2023-02-28T03:23:38;7.00;;;5.13;;
2480;SDS011;57396;48.742;9.128;2023-02-28T03:26:07;8.60;;;5.70;;
2480;SDS011;57396;48.742;9.128;2023-02-28T03:28:41;6.80;;;5.10;;
2480;SDS011;57396;48.742;9.128;2023-02-28T03:31:54;8.53;;;5.30;;
2480;SDS011;57396;48.742;9.128;2023-02-28T03:34:08;9.30;;;5.50;;
2480;SDS011;57396;48.742;9.128;2023-02-28T03:36:37;8.30;;;5.73;;
2480;SDS011;57396;48.742;9.128;2023-02-28T03:39:09;6.53;;;5.40;;
2480;SDS011;57396;48.742;9.128;2023-02-28T03:41:44;8.17;;;5.90;;
2480;SDS011;57396;48.742;9.128;2023-02-28T03:44:24;8.10;;;5.30;;
2480;SDS011;57396;48.742;9.128;2023-02-28T03:47:03;7.03;;;5.57;;
2480;SDS011;57396;48.742;9.128;2023-02-28T03:49:40;7.20;;;5.23;;
2480;SDS011;57396;48.742;9.128;2023-02-28T03:52:17;8.10;;;5.63;;
2480;SDS011;57396;48.742;9.128;2023-02-28T03:54:48;7.63;;;5.40;;
2480;SDS011;57396;48.742;9.128;2023-02-28T03:57:26;9.53;;;5.70;;
2480;SDS011;57396;48.742;9.128;2023-02-28T04:00:05;7.80;;;5.40;;
2480;SDS011;57396;48.742;9.128;2023-02-28T04:02:32;7.50;;;5.00;;
2480;SDS011;57396;48.742;9.128;2023-02-28T04:04:59;5.77;;;4.93;;
2480;SDS011;57396;48.742;9.128;2023-02-28T04:07:28;9.10;;;5.70;;
2480;SDS011;57396;48.742;9.128;2023-02-28T04:09:54;9.27;;;6.33;;
2480;SDS011;57396;48.742;9.128;2023-02-28T04:12:19;6.57;;;5.20;;
2480;SDS011;57396;48.742;9.128;2023-02-28T04:14:46;7.40;;;6.30;;
2480;SDS011;57396;48.742;9.128;2023-02-28T04:17:11;7.23;;;5.57;;
2480;SDS011;57396;48.742;9.128;2023-02-28T04:19:37;8.03;;;5.70;;
2480;SDS011;57396;48.742;9.128;2023-02-28T04:22:02;6.80;;;5.53;;
2480;SDS011;57396;48.742;9.128;2023-02-28T04:24:27;7.13;;;5.20;;
2480;SDS011;57396;48.742;9.128;2023-02-28T04:26:54;9.60;;;5.77;;
2480;SDS011;57396;48.742;9.128;2023-02-28T04:29:22;9.33;;;5.80;;
2480;SDS011;57396;48.742;9.128;2023-02-28T04:31:49;6.57;;;5.57;;
2480;SDS011;57396;48.742;9.128;2023-02-28T04:34:14;8.33;;;5.60;;
2480;SDS011;57396;48.742;9.128;2023-02-28T04:36:40;9.00;;;6.10;;
2480;SDS011;57396;48.742;9.128;2023-02-28T04:39:05;7.90;;;6.47;;
2480;SDS011;57396;48.742;9.128;2023-02-28T04:41:31;9.73;;;6.83;;
2480;SDS011;57396;48.742;9.128;2023-02-28T04:43:56;7.60;;;5.83;;
2480;SDS011;57396;48.742;9.128;2023-02-28T04:46:22;8.00;;;6.00;;
2480;SDS011;57396;48.742;9.128;2023-02-28T04:48:48;9.07;;;6.10;;
2480;SDS011;57396;48.742;9.128;2023-02-28T04:51:15;7.80;;;5.40;;
2480;SDS011;57396;48.742;9.128;2023-02-28T04:53:41;9.20;;;5.20;;
2480;SDS011;57396;48.742;9.128;2023-02-28T04:56:07;7.60;;;5.87;;
2480;SDS011;57396;48.742;9.128;2023-02-28T04:58:34;8.23;;;5.57;;
2480;SDS011;57396;48.742;9.128;2023-02-28T05:01:04;8.53;;;6.20;;
2480;SDS011;57396;48.742;9.128;2023-02-28T05:03:38;7.40;;;6.60;;
2480;SDS011;57396;48.742;9.128;2023-02-28T05:06:05;8.90;;;5.63;;
2480;SDS011;57396;48.742;9.128;2023-02-28T05:08:32;7.90;;;5.50;;
2480;SDS011;57396;48.742;9.128;2023-02-28T05:10:57;10.20;;;6.57;;
2480;SDS011;57396;48.742;9.128;2023-02-28T05:13:23;9.13;;;6.70;;
2480;SDS011;57396;48.742;9.128;2023-02-28T05:15:49;6.60;;;5.77;;
2480;SDS011;57396;48.742;9.128;2023-02-28T05:18:14;7.47;;;5.97;;
2480;SDS011;57396;48.742;9.128;2023-02-28T05:20:40;11.47;;;6.80;;
2480;SDS011;57396;48.742;9.128;2023-02-28T05:23:05;9.80;;;6.87;;
2480;SDS011;57396;48.742;9.128;2023-02-28T05:25:30;11.97;;;7.07;;
2480;SDS011;57396;48.742;9.128;2023-02-28T05:27:56;9.10;;;6.90;;
2480;SDS011;57396;48.742;9.128;2023-02-28T05:30:21;8.50;;;6.60;;
2480;SDS011;57396;48.742;9.128;2023-02-28T05:32:49;7.77;;;6.23;;
2480;SDS011;57396;48.742;9.128;2023-02-28T05:35:16;6.63;;;5.70;;
2480;SDS011;57396;48.742;9.128;2023-02-28T05:37:41;8.43;;;6.47;;
2480;SDS011;57396;48.742;9.128;2023-02-28T05:40:07;11.57;;;6.40;;
2480;SDS011;57396;48.742;9.128;2023-02-28T05:42:36;12.37;;;6.87;;
2480;SDS011;57396;48.742;9.128;2023-02-28T05:45:03;9.93;;;6.87;;
2480;SDS011;57396;48.742;9.128;2023-02-28T05:47:29;12.03;;;6.57;;
2480;SDS011;57396;48.742;9.128;2023-02-28T05:49:54;10.23;;;6.60;;
2480;SDS011;57396;48.742;9.128;2023-02-28T05:52:20;8.20;;;6.50;;
2480;SDS011;57396;48.742;9.128;2023-02-28T05:54:46;10.97;;;6.53;;
2480;SDS011;57396;48.742;9.128;2023-02-28T05:57:11;8.90;;;6.80;;
2480;SDS011;57396;48.742;9.128;2023-02-28T05:59:37;9.17;;;6.53;;
2480;SDS011;57396;48.742;9.128;2023-02-28T06:02:05;8.37;;;6.50;;
2480;SDS011;57396;48.742;9.128;2023-02-28T06:04:31;10.70;;;6.80;;
2480;SDS011;57396;48.742;9.128;2023-02-28T06:06:56;11.97;;;7.17;;
2480;SDS011;57396;48.742;9.128;2023-02-28T06:09:22;8.70;;;6.40;;
2480;SDS011;57396;48.742;9.128;2023-02-28T06:11:48;8.90;;;7.17;;
2480;SDS011;57396;48.742;9.128;2023-02-28T06:14:16;11.50;;;7.37;;
2480;SDS011;57396;48.742;9.128;2023-02-28T06:16:43;8.00;;;6.33;;
2480;SDS011;57396;48.742;9.128;2023-02-28T06:19:09;10.53;;;7.37;;
2480;SDS011;57396;48.742;9.128;2023-02-28T06:21:36;10.03;;;7.17;;
2480;SDS011;57396;48.742;9.128;2023-02-28T06:24:01;10.00;;;7.47;;
2480;SDS011;57396;48.742;9.128;2023-02-28T06:26:27;11.07;;;7.50;;
2480;SDS011;57396;48.742;9.128;2023-02-28T06:28:53;14.10;;;6.70;;
2480;SDS011;57396;48.742;9.128;2023-02-28T06:31:19;10.80;;;8.00;;
2480;SDS011;57396;48.742;9.128;2023-02-28T06:33:45;10.87;;;7.93;;
2480;SDS011;57396;48.742;9.128;2023-02-28T06:36:12;12.17;;;7.83;;
2480;SDS011;57396;48.742;9.128;2023-02-28T06:38:38;12.60;;;8.73;;
2480;SDS011;57396;48.742;9.128;2023-02-28T06:41:04;12.73;;;7.93;;
2480;SDS011;57396;48.742;9.128;2023-02-28T06:43:32;8.33;;;7.33;;
2480;SDS011;57396;48.742;9.128;2023-02-28T06:46:00;10.40;;;7.50;;
2480;SDS011;57396;48.742;9.128;2023-02-28T06:48:27;9.67;;;7.23;;
2480;SDS011;57396;48.742;9.128;2023-02-28T06:51:01;18.20;;;8.07;;
2480;SDS011;57396;48.742;9.128;2023-02-28T06:53:27;9.37;;;7.57;;
2480;SDS011;57396;48.742;9.128;2023-02-28T06:55:52;10.37;;;7.13;;
2480;SDS011;57396;48.742;9.128;2023-02-28T06:58:18;10.73;;;7.33;;
2480;SDS011;57396;48.742;9.128;2023-02-28T07:00:44;13.07;;;8.07;;
2480;SDS011;57396;48.742;9.128;2023-02-28T07:03:10;9.77;;;7.07;;
2480;SDS011;57396;48.742;9.128;2023-02-28T07:05:37;11.00;;;8.00;;
2480;SDS011;57396;48.742;9.128;2023-02-28T07:08:03;9.80;;;7.83;;
2480;SDS011;57396;48.742;9.128;2023-02-28T07:10:29;13.17;;;8.30;;
2480;SDS011;57396;48.742;9.128;2023-02-28T07:12:55;16.13;;;7.67;;
2480;SDS011;57396;48.742;9.128;2023-02-28T07:15:20;9.93;;;7.80;;
2480;SDS011;57396;48.742;9.128;2023-02-28T07:17:46;10.43;;;7.70;;
2480;SDS011;57396;48.742;9.128;2023-02-28T07:20:11;10.60;;;7.80;;
2480;SDS011;57396;48.742;9.128;2023-02-28T07:22:37;11.10;;;8.10;;
2480;SDS011;57396;48.742;9.128;2023-02-28T07:25:04;12.00;;;8.47;;
2480;SDS011;57396;48.742;9.128;2023-02-28T07:27:30;12.40;;;8.30;;
2480;SDS011;57396;48.742;9.128;2023-02-28T07:29:55;12.53;;;7.93;;
2480;SDS011;57396;48.742;9.128;2023-02-28T07:32:20;17.50;;;8.10;;
2480;SDS011;57396;48.742;9.128;2023-02-28T07:34:46;11.03;;;8.07;;
2480;SDS011;57396;48.742;9.128;2023-02-28T07:37:11;11.83;;;8.10;;
2480;SDS011;57396;48.742;9.128;2023-02-28T07:39:37;20.40;;;9.03;;
2480;SDS011;57396;48.742;9.128;2023-02-28T07:42:05;13.37;;;8.80;;
2480;SDS011;57396;48.742;9.128;2023-02-28T07:44:34;13.93;;;8.63;;
2480;SDS011;57396;48.742;9.128;2023-02-28T07:47:00;10.93;;;8.07;;
2480;SDS011;57396;48.742;9.128;2023-02-28T07:49:26;13.17;;;9.07;;
2480;SDS011;57396;48.742;9.128;2023-02-28T07:51:51;13.90;;;8.10;;
2480;SDS011;57396;48.742;9.128;2023-02-28T07:54:16;15.70;;;9.67;;
2480;SDS011;57396;48.742;9.128;2023-02-28T07:56:42;13.93;;;9.20;;
2480;SDS011;57396;48.742;9.128;2023-02-28T07:59:07;12.47;;;9.17;;
2480;SDS011;57396;48.742;9.128;2023-02-28T08:01:33;14.00;;;9.67;;
2480;SDS011;57396;48.742;9.128;2023-02-28T08:03:58;17.10;;;11.40;;
2480;SDS011;57396;48.742;9.128;2023-02-28T08:06:24;17.33;;;9.20;;
2480;SDS011;57396;48.742;9.128;2023-02-28T08:08:51;13.73;;;9.80;;
2480;SDS011;57396;48.742;9.128;2023-02-28T08:11:17;17.20;;;10.90;;
2480;SDS011;57396;48.742;9.128;2023-02-28T08:13:43;12.37;;;9.03;;
2480;SDS011;57396;48.742;9.128;2023-02-28T08:16:09;13.63;;;10.00;;
2480;SDS011;57396;48.742;9.128;2023-02-28T08:18:35;26.17;;;16.33;;
2480;SDS011;57396;48.742;9.128;2023-02-28T08:21:10;16.23;;;11.00;;
2480;SDS011;57396;48.742;9.128;2023-02-28T08:23:35;57.33;;;28.77;;
2480;SDS011;57396;48.742;9.128;2023-02-28T08:26:01;45.97;;;21.10;;
2480;SDS011;57396;48.742;9.128;2023-02-28T08:28:27;29.70;;;16.90;;
2480;SDS011;57396;48.742;9.128;2023-02-28T08:30:53;17.73;;;12.47;;
2480;SDS011;57396;48.742;9.128;2023-02-28T08:33:19;18.37;;;11.23;;
2480;SDS011;57396;48.742;9.128;2023-02-28T08:35:44;14.83;;;10.30;;
2480;SDS011;57396;48.742;9.128;2023-02-28T08:38:10;14.77;;;10.30;;
2480;SDS011;57396;48.742;9.128;2023-02-28T08:40:35;14.33;;;10.20;;
2480;SDS011;57396;48.742;9.128;2023-02-28T08:43:01;13.00;;;9.50;;
2480;SDS011;57396;48.742;9.128;2023-02-28T08:45:26;15.80;;;9.43;;
2480;SDS011;57396;48.742;9.128;2023-02-28T08:47:53;12.60;;;9.20;;
2480;SDS011;57396;48.742;9.128;2023-02-28T08:50:19;17.67;;;9.20;;
2480;SDS011;57396;48.742;9.128;2023-02-28T08:52:44;14.13;;;10.50;;
2480;SDS011;57396;48.742;9.128;2023-02-28T08:55:10;20.50;;;11.17;;
2480;SDS011;57396;48.742;9.128;2023-02-28T08:57:35;14.43;;;9.83;;
2480;SDS011;57396;48.742;9.128;2023-02-28T09:00:02;15.80;;;9.90;;
2480;SDS011;57396;48.742;9.128;2023-02-28T09:02:31;13.80;;;9.50;;
2480;SDS011;57396;48.742;9.128;2023-02-28T09:04:56;17.90;;;10.00;;
2480;SDS011;57396;48.742;9.128;2023-02-28T09:07:23;15.63;;;9.70;;
2480;SDS011;57396;48.742;9.128;2023-02-28T09:09:49;13.40;;;10.07;;
2480;SDS011;57396;48.742;9.128;2023-02-28T09:12:31;12.97;;;9.30;;
2480;SDS011;57396;48.742;9.128;2023-02-28T09:14:58;15.30;;;10.00;;
2480;SDS011;57396;48.742;9.128;2023-02-28T09:17:24;16.00;;;9.97;;
2480;SDS011;57396;48.742;9.128;2023-02-28T09:19:49;18.80;;;9.80;;
2480;SDS011;57396;48.742;9.128;2023-02-28T09:22:15;15.20;;;10.23;;
2480;SDS011;57396;48.742;9.128;2023-02-28T09:24:40;15.03;;;10.23;;
2480;SDS011;57396;48.742;9.128;2023-02-28T09:27:06;16.70;;;10.00;;
2480;SDS011;57396;48.742;9.128;2023-02-28T09:29:32;23.20;;;10.00;;
2480;SDS011;57396;48.742;9.128;2023-02-28T09:31:58;17.37;;;10.03;;
2480;SDS011;57396;48.742;9.128;2023-02-28T09:34:24;16.70;;;10.03;;
2480;SDS011;57396;48.742;9.128;2023-02-28T09:36:50;18.17;;;11.10;;
2480;SDS011;57396;48.742;9.128;2023-02-28T09:39:19;16.33;;;11.07;;
2480;SDS011;57396;48.742;9.128;2023-02-28T09:41:47;13.87;;;10.37;;
2480;SDS011;57396;48.742;9.128;2023-02-28T09:46:51;15.20;;;10.53;;
2480;SDS011;57396;48.742;9.128;2023-02-28T09:49:34;14.00;;;10.07;;
2480;SDS011;57396;48.742;9.128;2023-02-28T09:52:06;16.33;;;9.93;;
2480;SDS011;57396;48.742;9.128;2023-02-28T09:54:35;14.73;;;10.60;;
2480;SDS011;57396;48.742;9.128;2023-02-28T10:04:41;16.30;;;11.00;;
2480;SDS011;57396;48.742;9.128;2023-02-28T10:09:45;15.60;;;10.37;;
2480;SDS011;57396;48.742;9.128;2023-02-28T10:12:12;16.47;;;10.60;;
2480;SDS011;57396;48.742;9.128;2023-02-28T10:14:38;14.83;;;10.47;;
2480;SDS011;57396;48.742;9.128;2023-02-28T10:20:07;13.57;;;10.50;;
2480;SDS011;57396;48.742;9.128;2023-02-28T10:22:57;15.63;;;10.50;;
2480;SDS011;57396;48.742;9.128;2023-02-28T10:25:28;14.70;;;10.77;;
2480;SDS011;57396;48.742;9.128;2023-02-28T10:28:15;15.03;;;11.20;;
2480;SDS011;57396;48.742;9.128;2023-02-28T10:30:45;13.80;;;10.17;;
2480;SDS011;57396;48.742;9.128;2023-02-28T10:33:46;17.00;;;10.10;;
2480;SDS011;57396;48.742;9.128;2023-02-28T10:36:04;13.53;;;9.50;;
2480;SDS011;57396;48.742;9.128;2023-02-28T10:43:36;13.50;;;10.50;;
2480;SDS011;57396;48.742;9.128;2023-02-28T10:48:44;16.17;;;11.13;;
2480;SDS011;57396;48.742;9.128;2023-02-28T10:51:15;15.97;;;11.03;;
2480;SDS011;57396;48.742;9.128;2023-02-28T10:53:45;16.40;;;11.30;;
2480;SDS011;57396;48.742;9.128;2023-02-28T10:56:17;15.97;;;10.90;;
2480;SDS011;57396;48.742;9.128;2023-02-28T10:59:03;15.90;;;11.13;;
2480;SDS011;57396;48.742;9.128;2023-02-28T11:01:42;15.17;;;10.93;;
2480;SDS011;57396;48.742;9.128;2023-02-28T11:06:47;14.83;;;10.20;;
2480;SDS011;57396;48.742;9.128;2023-02-28T11:09:34;15.27;;;11.00;;
2480;SDS011;57396;48.742;9.128;2023-02-28T11:12:05;16.00;;;11.57;;
2480;SDS011;57396;48.742;9.128;2023-02-28T11:14:33;19.43;;;11.27;;
2480;SDS011;57396;48.742;9.128;2023-02-28T11:17:11;13.87;;;10.90;;
2480;SDS011;57396;48.742;9.128;2023-02-28T11:19:40;18.10;;;11.17;;
2480;SDS011;57396;48.742;9.128;2023-02-28T11:22:09;16.80;;;11.03;;
2480;SDS011;57396;48.742;9.128;2023-02-28T11:24:43;14.43;;;10.37;;
2480;SDS011;57396;48.742;9.128;2023-02-28T11:27:24;16.00;;;11.40;;
2480;SDS011;57396;48.742;9.128;2023-02-28T11:29:56;12.93;;;10.70;;
2480;SDS011;57396;48.742;9.128;2023-02-28T11:32:23;14.57;;;11.03;;
2480;SDS011;57396;48.742;9.128;2023-02-28T11:35:01;15.00;;;11.63;;
2480;SDS011;57396;48.742;9.128;2023-02-28T11:37:36;13.90;;;10.93;;
2480;SDS011;57396;48.742;9.128;2023-02-28T11:40:05;27.43;;;15.73;;
2480;SDS011;57396;48.742;9.128;2023-02-28T11:42:41;22.60;;;15.23;;
2480;SDS011;57396;48.742;9.128;2023-02-28T11:45:40;14.57;;;10.93;;
2480;SDS011;57396;48.742;9.128;2023-02-28T12:06:56;16.93;;;11.80;;
2480;SDS011;57396;48.742;9.128;2023-02-28T12:20:43;15.83;;;11.17;;
2480;SDS011;57396;48.742;9.128;2023-02-28T12:26:29;12.67;;;10.10;;
2480;SDS011;57396;48.742;9.128;2023-02-28T12:29:05;13.13;;;9.90;;
2480;SDS011;57396;48.742;9.128;2023-02-28T12:31:36;13.23;;;10.30;;
2480;SDS011;57396;48.742;9.128;2023-02-28T12:34:06;14.53;;;11.27;;
2480;SDS011;57396;48.742;9.128;2023-02-28T12:36:35;13.00;;;9.80;;
2480;SDS011;57396;48.742;9.128;2023-02-28T12:39:13;15.67;;;10.80;;
2480;SDS011;57396;48.742;9.128;2023-02-28T12:41:46;15.17;;;10.20;;
2480;SDS011;57396;48.742;9.128;2023-02-28T12:44:15;15.33;;;10.20;;
2480;SDS011;57396;48.742;9.128;2023-02-28T12:46:50;11.83;;;10.03;;
2480;SDS011;57396;48.742;9.128;2023-02-28T12:51:44;12.07;;;9.87;;
2480;SDS011;57396;48.742;9.128;2023-02-28T12:54:17;13.47;;;10.50;;
2480;SDS011;57396;48.742;9.128;2023-02-28T12:59:54;12.27;;;10.40;;
2480;SDS011;57396;48.742;9.128;2023-02-28T13:10:05;15.90;;;10.30;;
2480;SDS011;57396;48.742;9.128;2023-02-28T13:12:34;12.87;;;10.67;;
2480;SDS011;57396;48.742;9.128;2023-02-28T13:17:37;16.00;;;11.10;;
2480;SDS011;57396;48.742;9.128;2023-02-28T13:20:14;15.10;;;11.30;;
2480;SDS011;57396;48.742;9.128;2023-02-28T13:22:45;13.37;;;10.87;;
2480;SDS011;57396;48.742;9.128;2023-02-28T13:27:58;29.80;;;15.00;;
2480;SDS011;57396;48.742;9.128;2023-02-28T13:38:42;17.40;;;11.30;;
2480;SDS011;57396;48.742;9.128;2023-02-28T13:44:00;14.63;;;12.17;;
2480;SDS011;57396;48.742;9.128;2023-02-28T13:46:34;16.27;;;10.63;;
2480;SDS011;57396;48.742;9.128;2023-02-28T13:52:33;12.10;;;10.80;;
2480;SDS011;57396;48.742;9.128;2023-02-28T14:00:17;14.57;;;10.13;;
2480;SDS011;57396;48.742;9.128;2023-02-28T14:05:46;12.17;;;10.70;;
2480;SDS011;57396;48.742;9.128;2023-02-28T14:10:49;16.30;;;10.97;;
2480;SDS011;57396;48.742;9.128;2023-02-28T14:16:09;11.63;;;9.40;;
2480;SDS011;57396;48.742;9.128;2023-02-28T14:18:36;17.70;;;10.30;;
2480;SDS011;57396;48.742;9.128;2023-02-28T14:24:15;15.47;;;10.27;;
2480;SDS011;57396;48.742;9.128;2023-02-28T14:29:19;13.07;;;10.50;;
2480;SDS011;57396;48.742;9.128;2023-02-28T14:32:00;12.40;;;9.27;;
2480;SDS011;57396;48.742;9.128;2023-02-28T14:37:20;14.30;;;9.90;;
2480;SDS011;57396;48.742;9.128;2023-02-28T14:39:50;13.23;;;10.00;;
2480;SDS011;57396;48.742;9.128;2023-02-28T14:42:30;12.20;;;9.50;;
2480;SDS011;57396;48.742;9.128;2023-02-28T14:44:59;12.43;;;10.20;;
2480;SDS011;57396;48.742;9.128;2023-02-28T14:47:28;13.40;;;9.13;;
2480;SDS011;57396;48.742;9.128;2023-02-28T14:49:57;12.47;;;10.00;;
2480;SDS011;57396;48.742;9.128;2023-02-28T14:52:24;11.93;;;9.83;;
2480;SDS011;57396;48.742;9.128;2023-02-28T14:54:54;12.20;;;9.60;;
2480;SDS011;57396;48.742;9.128;2023-02-28T15:02:40;13.33;;;9.83;;
2480;SDS011;57396;48.742;9.128;2023-02-28T15:07:34;12.63;;;10.17;;
2480;SDS011;57396;48.742;9.128;2023-02-28T15:10:33;13.73;;;10.20;;
2480;SDS011;57396;48.742;9.128;2023-02-28T15:12:58;12.47;;;10.23;;
2480;SDS011;57396;48.742;9.128;2023-02-28T15:15:35;13.27;;;10.30;;
2480;SDS011;57396;48.742;9.128;2023-02-28T15:20:57;14.37;;;10.17;;
2480;SDS011;57396;48.742;9.128;2023-02-28T15:23:28;14.60;;;10.77;;
2480;SDS011;57396;48.742;9.128;2023-02-28T15:25:54;13.73;;;10.20;;
2480;SDS011;57396;48.742;9.128;2023-02-28T15:28:20;12.03;;;10.23;;
2480;SDS011;57396;48.742;9.128;2023-02-28T15:30:54;13.90;;;10.07;;
2480;SDS011;57396;48.742;9.128;2023-02-28T15:33:28;13.67;;;10.07;;
2480;SDS011;57396;48.742;9.128;2023-02-28T15:36:05;14.93;;;11.03;;
2480;SDS011;57396;48.742;9.128;2023-02-28T15:38:38;12.50;;;10.70;;
2480;SDS011;57396;48.742;9.128;2023-02-28T15:41:03;12.60;;;9.87;;
2480;SDS011;57396;48.742;9.128;2023-02-28T15:43:34;17.67;;;9.80;;
2480;SDS011;57396;48.742;9.128;2023-02-28T15:46:11;13.60;;;10.13;;
2480;SDS011;57396;48.742;9.128;2023-02-28T15:48:46;14.80;;;11.03;;
2480;SDS011;57396;48.742;9.128;2023-02-28T15:51:21;16.47;;;10.70;;
2480;SDS011;57396;48.742;9.128;2023-02-28T15:53:54;17.40;;;11.10;;
2480;SDS011;57396;48.742;9.128;2023-02-28T15:56:26;13.93;;;10.07;;
2480;SDS011;57396;48.742;9.128;2023-02-28T15:59:06;16.97;;;11.57;;
2480;SDS011;57396;48.742;9.128;2023-02-28T16:01:36;15.00;;;10.80;;
2480;SDS011;57396;48.742;9.128;2023-02-28T16:04:06;12.90;;;11.10;;
2480;SDS011;57396;48.742;9.128;2023-02-28T16:06:39;11.47;;;9.77;;
2480;SDS011;57396;48.742;9.128;2023-02-28T16:09:16;14.20;;;10.80;;
2480;SDS011;57396;48.742;9.128;2023-02-28T16:11:46;16.03;;;10.73;;
2480;SDS011;57396;48.742;9.128;2023-02-28T16:14:13;15.73;;;10.53;;
2480;SDS011;57396;48.742;9.128;2023-02-28T16:16:44;11.17;;;9.97;;
2480;SDS011;57396;48.742;9.128;2023-02-28T16:19:12;14.90;;;11.40;;
2480;SDS011;57396;48.742;9.128;2023-02-28T16:21:37;16.70;;;10.87;;
2480;SDS011;57396;48.742;9.128;2023-02-28T16:24:02;14.67;;;10.73;;
2480;SDS011;57396;48.742;9.128;2023-02-28T16:26:28;15.30;;;10.60;;
2480;SDS011;57396;48.742;9.128;2023-02-28T16:28:53;13.07;;;10.67;;
2480;SDS011;57396;48.742;9.128;2023-02-28T16:31:19;13.97;;;10.87;;
2480;SDS011;57396;48.742;9.128;2023-02-28T16:33:45;13.00;;;10.50;;
2480;SDS011;57396;48.742;9.128;2023-02-28T16:36:15;19.00;;;11.40;;
2480;SDS011;57396;48.742;9.128;2023-02-28T16:38:43;15.80;;;11.33;;
2480;SDS011;57396;48.742;9.128;2023-02-28T16:41:09;14.43;;;10.90;;
2480;SDS011;57396;48.742;9.128;2023-02-28T16:43:53;19.30;;;11.10;;
2480;SDS011;57396;48.742;9.128;2023-02-28T16:46:23;12.80;;;10.03;;
2480;SDS011;57396;48.742;9.128;2023-02-28T16:48:49;12.97;;;10.20;;
2480;SDS011;57396;48.742;9.128;2023-02-28T16:51:16;13.83;;;10.40;;
2480;SDS011;57396;48.742;9.128;2023-02-28T16:53:42;16.20;;;11.30;;
2480;SDS011;57396;48.742;9.128;2023-02-28T16:56:43;17.20;;;10.80;;
2480;SDS011;57396;48.742;9.128;2023-02-28T16:59:00;14.80;;;11.20;;
2480;SDS011;57396;48.742;9.128;2023-02-28T17:01:27;12.57;;;10.17;;
2480;SDS011;57396;48.742;9.128;2023-02-28T17:03:53;15.03;;;10.93;;
2480;SDS011;57396;48.742;9.128;2023-02-28T17:06:20;16.93;;;11.20;;
2480;SDS011;57396;48.742;9.128;2023-02-28T17:08:48;17.63;;;11.27;;
2480;SDS011;57396;48.742;9.128;2023-02-28T17:11:16;14.60;;;11.10;;
2480;SDS011;57396;48.742;9.128;2023-02-28T17:13:42;14.90;;;11.50;;
2480;SDS011;57396;48.742;9.128;2023-02-28T17:16:11;14.33;;;10.90;;
2480;SDS011;57396;48.742;9.128;2023-02-28T17:18:41;16.40;;;10.70;;
2480;SDS011;57396;48.742;9.128;2023-02-28T17:21:16;16.00;;;11.77;;
2480;SDS011;57396;48.742;9.128;2023-02-28T17:23:42;15.77;;;11.50;;